Time;durP1;ratioP1;P1;durP2;ratioP2;P2;SDS_P1;SDS_P2;PMS_P1;PMS_P2;Temp;Humidity;BMP_temperature;BMP_pressure;BME280_temperature;BME280_humidity;BME280_pressure;Samples;Min_cycle;Max_cycle;Signal;HPM_P1;HPM_P2
2023/06/04 00:00:27;;;;;;;4.47;2.80;;;;;;;12.55;100.00;95770.69;1023798;28;20119;-73
2023/06/04 00:00:58;;;;;;;7.80;2.92;;;;;;;12.57;100.00;95773.03;1031401;28;20030;-72
2023/06/04 00:01:29;;;;;;;7.82;3.00;;;;;;;12.61;100.00;95779.31;1027079;28;20034;-73
2023/06/04 00:01:59;;;;;;;4.28;2.90;;;;;;;12.60;100.00;95783.03;1031253;28;20412;-73
2023/06/04 00:02:29;;;;;;;7.55;3.15;;;;;;;12.58;100.00;95775.41;1027477;28;20030;-72
2023/06/04 00:03:00;;;;;;;6.50;2.95;;;;;;;12.56;100.00;95777.53;1031643;28;20639;-72
2023/06/04 00:03:30;;;;;;;6.13;3.05;;;;;;;12.57;100.00;95783.56;1035506;28;20022;-73
2023/06/04 00:04:01;;;;;;;5.72;3.45;;;;;;;12.56;100.00;95782.00;1032887;28;20419;-73
2023/06/04 00:04:31;;;;;;;4.95;3.03;;;;;;;12.54;100.00;95777.03;1035444;28;20794;-73
2023/06/04 00:05:02;;;;;;;5.85;2.53;;;;;;;12.54;100.00;95779.66;1035676;28;20052;-72
2023/06/04 00:05:32;;;;;;;6.18;3.30;;;;;;;12.53;100.00;95782.56;1035481;28;20053;-73
2023/06/04 00:06:03;;;;;;;6.90;3.20;;;;;;;12.51;100.00;95785.47;1035547;28;20076;-72
2023/06/04 00:06:33;;;;;;;4.65;3.20;;;;;;;12.50;100.00;95782.03;1031444;28;20030;-73
2023/06/04 00:07:04;;;;;;;11.02;3.00;;;;;;;12.49;100.00;95783.09;1031395;28;20724;-72
2023/06/04 00:07:35;;;;;;;5.00;2.80;;;;;;;12.48;100.00;95780.75;1027408;28;20053;-72
2023/06/04 00:08:05;;;;;;;5.10;3.05;;;;;;;12.47;100.00;95779.97;1031685;28;20061;-73
2023/06/04 00:08:35;;;;;;;6.38;2.75;;;;;;;12.47;100.00;95779.16;1031275;28;20030;-72
2023/06/04 00:09:06;;;;;;;6.70;3.10;;;;;;;12.46;100.00;95774.97;1027318;28;20027;-73
2023/06/04 00:09:36;;;;;;;3.80;2.90;;;;;;;12.46;100.00;95782.84;1035332;28;20037;-73
2023/06/04 00:10:07;;;;;;;5.28;2.95;;;;;;;12.45;100.00;95781.28;1027522;28;20022;-72
2023/06/04 00:10:39;;;;;;;7.63;3.05;;;;;;;12.41;100.00;95775.78;1031360;28;20026;-73
2023/06/04 00:11:10;;;;;;;5.22;2.63;;;;;;;12.32;100.00;95769.53;1026577;28;20030;-72
2023/06/04 00:11:40;;;;;;;4.22;2.85;;;;;;;12.41;100.00;95778.41;1035168;28;20026;-73
2023/06/04 00:12:11;;;;;;;5.40;3.03;;;;;;;12.42;100.00;95779.19;1031509;28;20030;-73
2023/06/04 00:12:41;;;;;;;6.72;2.90;;;;;;;12.39;100.00;95775.25;1031480;28;20037;-72
2023/06/04 00:13:12;;;;;;;9.27;3.40;;;;;;;12.40;100.00;95783.94;1031360;28;20460;-72
2023/06/04 00:13:42;;;;;;;6.03;2.97;;;;;;;12.37;100.00;95774.75;1027390;28;20122;-72
2023/06/04 00:14:13;;;;;;;5.00;2.92;;;;;;;12.35;100.00;95768.19;1031326;28;20687;-72
2023/06/04 00:14:44;;;;;;;6.75;3.05;;;;;;;12.33;100.00;95771.09;1031376;28;20726;-72
2023/06/04 00:15:16;;;;;;;4.53;3.03;;;;;;;12.36;100.00;95778.44;1035570;28;20038;-72
2023/06/04 00:15:46;;;;;;;5.80;3.05;;;;;;;12.37;100.00;95777.38;1031604;28;20018;-72
2023/06/04 00:16:17;;;;;;;5.10;3.00;;;;;;;12.37;100.00;95787.13;1035695;28;20506;-74
2023/06/04 00:16:47;;;;;;;5.88;3.30;;;;;;;12.37;100.00;95774.75;1026996;28;20037;-73
2023/06/04 00:17:18;;;;;;;6.80;3.22;;;;;;;12.36;100.00;95780.28;1027648;28;20034;-73
2023/06/04 00:17:48;;;;;;;5.72;2.85;;;;;;;12.37;100.00;95781.84;1031333;28;20030;-71
2023/06/04 00:18:18;;;;;;;2.85;2.55;;;;;;;12.34;100.00;95785.03;1031548;28;20038;-72
2023/06/04 00:18:49;;;;;;;3.90;3.15;;;;;;;12.30;100.00;95771.63;1035411;28;20391;-73
2023/06/04 00:19:19;;;;;;;5.63;2.60;;;;;;;12.32;100.00;95771.38;1031467;28;20034;-73
2023/06/04 00:19:50;;;;;;;5.28;2.88;;;;;;;12.31;100.00;95775.84;1035353;28;20034;-72
2023/06/04 00:20:20;;;;;;;5.13;2.55;;;;;;;12.32;100.00;95777.41;1027511;28;20031;-72
2023/06/04 00:20:51;;;;;;;7.40;2.97;;;;;;;12.29;100.00;95775.31;1027427;28;20042;-74
2023/06/04 00:21:21;;;;;;;3.97;2.33;;;;;;;12.29;100.00;95779.81;1033030;28;20030;-73
2023/06/04 00:21:52;;;;;;;5.85;3.10;;;;;;;12.27;100.00;95775.63;1027368;28;20097;-71
2023/06/04 00:22:23;;;;;;;5.97;2.92;;;;;;;12.26;100.00;95779.28;1023358;28;20023;-72
2023/06/04 00:22:54;;;;;;;3.40;2.35;;;;;;;12.26;100.00;95779.28;1019332;28;20066;-72
2023/06/04 00:23:24;;;;;;;3.85;2.55;;;;;;;12.24;100.00;95775.38;1014524;29;20039;-74
2023/06/04 00:23:55;;;;;;;3.90;2.63;;;;;;;12.19;100.00;95770.13;1023185;28;20556;-72
2023/06/04 00:24:25;;;;;;;5.65;2.63;;;;;;;12.19;100.00;95770.91;1026728;28;20535;-73
2023/06/04 00:24:55;;;;;;;5.25;2.67;;;;;;;12.24;100.00;95780.63;1026544;28;20038;-72
2023/06/04 00:25:26;;;;;;;7.35;3.00;;;;;;;12.23;100.00;95779.81;1034794;28;20034;-73
2023/06/04 00:25:56;;;;;;;6.35;2.95;;;;;;;12.18;100.00;95771.19;1034991;28;20029;-72
2023/06/04 00:26:27;;;;;;;6.30;2.60;;;;;;;12.24;100.00;95781.41;1034651;28;20127;-73
2023/06/04 00:26:57;;;;;;;6.10;2.67;;;;;;;12.22;100.00;95772.22;1034789;28;20034;-73
2023/06/04 00:27:28;;;;;;;4.75;2.47;;;;;;;12.13;100.00;95768.56;1030689;28;20065;-73
2023/06/04 00:27:58;;;;;;;5.75;3.00;;;;;;;12.22;100.00;95786.16;1026816;28;20035;-73
2023/06/04 00:28:29;;;;;;;7.07;2.95;;;;;;;12.21;100.00;95781.19;1030957;28;20503;-72
2023/06/04 00:29:00;;;;;;;4.90;2.80;;;;;;;12.20;100.00;95779.56;1030737;28;20034;-73
2023/06/04 00:29:30;;;;;;;5.15;2.58;;;;;;;12.13;100.00;95774.63;1030846;28;20450;-73
2023/06/04 00:30:01;;;;;;;5.85;2.83;;;;;;;12.19;100.00;95783.28;1030583;28;20042;-71
2023/06/04 00:30:32;;;;;;;4.72;2.80;;;;;;;12.16;100.00;95778.56;1026710;28;20109;-72
2023/06/04 00:31:04;;;;;;;7.15;2.97;;;;;;;12.11;100.00;95775.97;1026294;28;20125;-74
2023/06/04 00:31:35;;;;;;;4.55;2.42;;;;;;;12.14;100.00;95775.41;1018756;29;20140;-72
2023/06/04 00:32:06;;;;;;;4.10;2.42;;;;;;;12.12;100.00;95778.31;1023090;28;20505;-72
2023/06/04 00:32:36;;;;;;;5.60;2.85;;;;;;;12.10;100.00;95780.41;1022775;29;20490;-72
2023/06/04 00:33:07;;;;;;;5.85;2.67;;;;;;;12.08;100.00;95781.75;1022986;28;20035;-72
2023/06/04 00:33:37;;;;;;;6.40;2.50;;;;;;;12.07;100.00;95780.16;1030601;28;20026;-73
2023/06/04 00:34:08;;;;;;;6.95;3.03;;;;;;;12.08;100.00;95781.75;1025134;28;20042;-73
2023/06/04 00:34:38;;;;;;;7.20;2.67;;;;;;;12.06;100.00;95775.97;1026488;28;20741;-73
2023/06/04 00:35:09;;;;;;;4.28;2.50;;;;;;;12.05;100.00;95779.66;1030650;28;20041;-72
2023/06/04 00:35:40;;;;;;;4.43;2.78;;;;;;;12.05;100.00;95784.94;1026589;28;20026;-72
2023/06/04 00:36:10;;;;;;;5.10;2.63;;;;;;;11.98;100.00;95770.22;1026920;28;20027;-72
2023/06/04 00:36:41;;;;;;;6.65;2.83;;;;;;;12.02;100.00;95781.78;1037207;28;20139;-73
2023/06/04 00:37:11;;;;;;;7.72;2.75;;;;;;;12.02;100.00;95781.00;1038879;28;20026;-73
2023/06/04 00:37:42;;;;;;;3.63;2.28;;;;;;;11.99;100.00;95778.91;1034549;28;20030;-73
2023/06/04 00:38:12;;;;;;;4.95;3.25;;;;;;;11.93;100.00;95770.25;1035740;28;20017;-72
2023/06/04 00:38:42;;;;;;;6.40;2.40;;;;;;;11.94;100.00;95771.81;1030685;28;20069;-72
2023/06/04 00:39:13;;;;;;;6.63;2.65;;;;;;;11.93;100.00;95772.88;1030858;28;20026;-72
2023/06/04 00:39:43;;;;;;;4.32;2.50;;;;;;;11.93;100.00;95770.25;1030504;28;20022;-72
2023/06/04 00:40:14;;;;;;;4.75;2.67;;;;;;;11.97;100.00;95781.81;1026505;28;20754;-73
2023/06/04 00:40:45;;;;;;;3.47;2.20;;;;;;;11.96;100.00;95771.53;1026804;28;20023;-72
2023/06/04 00:41:16;;;;;;;3.58;2.75;;;;;;;11.91;100.00;95768.94;1026179;28;20023;-73
2023/06/04 00:41:46;;;;;;;7.03;2.70;;;;;;;11.94;100.00;95771.81;1028360;28;20019;-73
2023/06/04 00:42:17;;;;;;;5.82;2.88;;;;;;;11.91;100.00;95772.38;1030759;28;20038;-72
2023/06/04 00:42:49;;;;;;;5.80;2.58;;;;;;;11.91;100.00;95777.63;1030643;28;20018;-72
2023/06/04 00:43:19;;;;;;;4.93;2.70;;;;;;;11.91;100.00;95777.63;1029292;28;20023;-72
2023/06/04 00:43:55;;;;;;;7.32;2.67;;;;;;;11.93;100.00;95782.59;1030638;28;20266;-73
2023/06/04 00:44:26;;;;;;;5.95;2.13;;;;;;;11.91;100.00;95777.63;1029574;28;20132;-73
2023/06/04 00:44:57;;;;;;;5.45;2.53;;;;;;;11.93;100.00;95779.97;1027506;28;20311;-73
2023/06/04 00:45:31;;;;;;;4.05;2.42;;;;;;;11.83;100.00;95765.00;1027453;28;20756;-73
2023/06/04 00:46:03;;;;;;;4.40;2.42;;;;;;;11.85;100.00;95770.03;1029629;28;20046;-72
2023/06/04 00:46:33;;;;;;;7.28;3.03;;;;;;;11.88;100.00;95774.75;1025751;28;20258;-72
2023/06/04 00:47:04;;;;;;;3.42;2.53;;;;;;;11.87;100.00;95773.97;1018660;29;20991;-72
2023/06/04 00:47:34;;;;;;;5.00;2.47;;;;;;;11.87;100.00;95779.22;1034611;28;20147;-72
2023/06/04 00:48:05;;;;;;;5.10;2.58;;;;;;;11.87;100.00;95781.03;1033077;28;20791;-74
2023/06/04 00:48:36;;;;;;;8.52;2.40;;;;;;;11.86;100.00;95771.59;1034440;28;20022;-72
2023/06/04 00:49:07;;;;;;;5.82;2.47;;;;;;;11.85;100.00;95783.19;1030835;28;20073;-72
2023/06/04 00:49:37;;;;;;;6.85;2.55;;;;;;;11.84;100.00;95777.13;1030570;28;20026;-72
2023/06/04 00:50:08;;;;;;;3.42;2.50;;;;;;;11.83;100.00;95772.09;1027947;28;20022;-72
2023/06/04 00:50:39;;;;;;;6.20;2.60;;;;;;;11.78;100.00;95773.69;1034517;28;20021;-72
2023/06/04 00:51:09;;;;;;;5.13;2.47;;;;;;;11.75;100.00;95768.97;1033932;28;20080;-74
2023/06/04 00:51:40;;;;;;;4.40;2.50;;;;;;;11.81;100.00;95775.00;1026599;28;20026;-72
2023/06/04 00:52:11;;;;;;;5.95;2.33;;;;;;;11.80;100.00;95776.84;1022274;29;20032;-73
2023/06/04 00:52:42;;;;;;;5.28;2.60;;;;;;;11.79;100.00;95777.09;1026385;28;20033;-72
2023/06/04 00:53:12;;;;;;;4.93;2.65;;;;;;;11.80;100.00;95781.31;1019287;28;20347;-73
2023/06/04 00:53:43;;;;;;;7.55;2.83;;;;;;;11.78;100.00;95778.94;1022681;28;20078;-73
2023/06/04 00:54:13;;;;;;;5.13;2.60;;;;;;;11.76;100.00;95770.53;1030621;28;20026;-72
2023/06/04 00:54:44;;;;;;;4.55;2.78;;;;;;;11.77;100.00;95781.88;1026427;28;20475;-73
2023/06/04 00:55:18;;;;;;;5.10;2.70;;;;;;;11.76;100.00;95781.06;1030507;28;20026;-73
2023/06/04 00:55:48;;;;;;;4.43;2.65;;;;;;;11.72;100.00;95777.41;1022785;29;20042;-73
2023/06/04 00:56:19;;;;;;;5.47;2.90;;;;;;;11.76;100.00;95775.00;1026538;28;20277;-73
2023/06/04 00:56:50;;;;;;;4.90;2.70;;;;;;;11.76;100.00;95775.78;1026387;28;20026;-73
2023/06/04 00:57:22;;;;;;;6.28;2.60;;;;;;;11.75;100.00;95778.72;1030792;28;20022;-73
2023/06/04 00:57:52;;;;;;;4.07;2.47;;;;;;;11.76;100.00;95772.38;1038371;28;20087;-72
2023/06/04 00:58:24;;;;;;;3.63;2.63;;;;;;;11.75;100.00;95781.34;1031028;28;20281;-73
2023/06/04 00:58:55;;;;;;;5.45;2.80;;;;;;;11.74;100.00;95782.41;1034482;28;20033;-71
2023/06/04 00:59:25;;;;;;;6.10;2.47;;;;;;;11.74;100.00;95782.41;1034438;28;20652;-72
2023/06/04 00:59:56;;;;;;;4.47;2.60;;;;;;;11.68;100.00;95779.00;1030961;28;20022;-72
2023/06/04 01:00:26;;;;;;;3.28;2.17;;;;;;;11.73;100.00;95780.81;1028242;28;20057;-73
2023/06/04 01:00:57;;;;;;;9.10;2.30;;;;;;;11.71;100.00;95783.72;1030651;28;20567;-72
2023/06/04 01:01:40;;;;;;;4.13;2.58;;;;;;;11.72;100.00;95787.13;1021984;29;20023;-72
2023/06/04 01:02:16;;;;;;;4.82;2.67;;;;;;;11.63;100.00;95770.31;1023143;28;20321;-72
2023/06/04 01:02:50;;;;;;;5.85;2.83;;;;;;;11.65;100.00;95779.53;1026513;28;21319;-73
2023/06/04 01:03:21;;;;;;;4.18;2.60;;;;;;;11.64;100.00;95777.97;1029461;28;20640;-72
2023/06/04 01:03:51;;;;;;;4.97;2.83;;;;;;;11.63;100.00;95780.84;1026538;28;20313;-73
2023/06/04 01:04:31;;;;;;;4.65;2.38;;;;;;;11.64;100.00;95782.44;1023170;28;20062;-72
2023/06/04 01:05:08;;;;;;;10.27;2.83;;;;;;;11.61;100.00;95780.34;1022689;29;20501;-72
2023/06/04 01:05:59;;;;;;;3.47;2.40;;;;;;;11.54;100.00;95778.78;1026766;28;20019;-73
2023/06/04 01:06:36;;;;;;;5.47;2.67;;;;;;;11.56;100.00;95781.91;1030660;28;20286;-73
2023/06/04 01:07:07;;;;;;;5.05;2.60;;;;;;;11.54;100.00;95784.03;1034515;28;20272;-73
2023/06/04 01:07:37;;;;;;;6.63;2.45;;;;;;;11.56;100.00;95787.16;1030555;28;20300;-72
2023/06/04 01:08:09;;;;;;;5.63;2.78;;;;;;;11.46;100.00;95770.63;1022585;28;20031;-73
2023/06/04 01:08:42;;;;;;;6.57;2.20;;;;;;;11.53;100.00;95787.69;1034456;28;20042;-73
2023/06/04 01:09:13;;;;;;;4.70;2.50;;;;;;;11.50;100.00;95772.47;1034872;28;20289;-73
2023/06/04 01:09:44;;;;;;;7.60;2.67;;;;;;;11.47;100.00;95777.50;1018451;29;20355;-72
2023/06/04 01:10:14;;;;;;;5.45;2.78;;;;;;;11.51;100.00;95779.31;1030634;28;20026;-73
2023/06/04 01:10:55;;;;;;;5.68;2.65;;;;;;;11.45;100.00;95772.47;1029260;28;20269;-72
2023/06/04 01:11:51;;;;;;;4.97;2.42;;;;;;;11.50;100.00;95788.25;1023393;28;20034;-72
2023/06/04 01:12:22;;;;;;;3.97;2.45;;;;;;;11.44;100.00;95778.81;1020166;28;20067;-72
2023/06/04 01:12:52;;;;;;;4.07;2.05;;;;;;;11.46;100.00;95779.31;1022395;29;20315;-72
2023/06/04 01:13:24;;;;;;;4.72;2.28;;;;;;;11.49;100.00;95785.88;1022716;29;20031;-73
2023/06/04 01:13:54;;;;;;;6.13;2.40;;;;;;;11.47;100.00;95783.53;1018428;29;20042;-73
2023/06/04 01:14:25;;;;;;;4.38;2.67;;;;;;;11.47;100.00;95780.13;1019079;28;20278;-72
2023/06/04 01:14:56;;;;;;;4.22;2.20;;;;;;;11.44;100.00;95786.69;1022701;28;20432;-73
2023/06/04 01:15:26;;;;;;;2.80;1.98;;;;;;;11.37;100.00;95773.03;1026383;28;20053;-72
2023/06/04 01:15:59;;;;;;;3.10;2.13;;;;;;;11.45;100.00;95783.00;1038278;28;20159;-73
2023/06/04 01:16:32;;;;;;;4.60;2.20;;;;;;;11.43;100.00;95787.72;1039008;28;20702;-73
2023/06/04 01:17:41;;;;;;;3.60;2.35;;;;;;;11.43;100.00;95792.97;1037940;28;20387;-72
2023/06/04 01:18:27;;;;;;;4.45;2.58;;;;;;;11.41;100.00;95789.84;1028794;28;20262;-73
2023/06/04 01:18:59;;;;;;;7.13;2.63;;;;;;;11.41;100.00;95789.06;1033826;28;20642;-73
2023/06/04 01:19:42;;;;;;;4.30;2.17;;;;;;;11.42;100.00;95791.41;1031301;28;20711;-73
2023/06/04 01:20:18;;;;;;;7.32;3.10;;;;;;;11.41;100.00;95792.47;1034742;28;20267;-72
2023/06/04 01:20:49;;;;;;;4.70;2.30;;;;;;;11.41;100.00;95789.84;1038531;28;20861;-73
2023/06/04 01:21:19;;;;;;;6.05;2.65;;;;;;;11.35;100.00;95782.22;1040272;28;20379;-73
2023/06/04 01:21:51;;;;;;;3.83;2.47;;;;;;;11.38;100.00;95789.59;1030472;28;20042;-72
2023/06/04 01:22:41;;;;;;;3.75;2.10;;;;;;;11.39;100.00;95791.94;1030429;28;20022;-73
2023/06/04 01:23:46;;;;;;;7.80;2.85;;;;;;;11.38;100.00;95789.59;1022449;28;20270;-72
2023/06/04 01:24:17;;;;;;;3.38;2.55;;;;;;;11.35;100.00;95785.66;1026556;28;20035;-73
2023/06/04 01:24:51;;;;;;;5.55;2.80;;;;;;;11.32;100.00;95786.97;1018908;29;21616;-73
2023/06/04 01:25:35;;;;;;;8.30;2.63;;;;;;;11.35;100.00;95793.53;1030450;28;20117;-73
2023/06/04 01:26:06;;;;;;;4.93;2.80;;;;;;;11.33;100.00;95787.75;1034596;28;20265;-72
2023/06/04 01:26:37;;;;;;;3.47;2.38;;;;;;;11.33;100.00;95787.75;1022350;28;20266;-73
2023/06/04 01:27:08;;;;;;;4.32;2.53;;;;;;;11.30;100.00;95786.44;1030593;28;20109;-72
2023/06/04 01:27:40;;;;;;;3.97;2.30;;;;;;;11.28;100.00;95787.75;1030266;28;20281;-72
2023/06/04 01:28:12;;;;;;;4.57;2.65;;;;;;;11.30;100.00;95785.63;1022304;28;20285;-73
2023/06/04 01:28:42;;;;;;;6.18;2.20;;;;;;;11.30;100.00;95783.00;1026514;28;20763;-73
2023/06/04 01:29:13;;;;;;;4.53;2.70;;;;;;;11.31;100.00;95784.59;1026522;28;20278;-72
2023/06/04 01:29:44;;;;;;;3.92;3.10;;;;;;;11.30;100.00;95783.00;1023512;28;20099;-72
2023/06/04 01:30:15;;;;;;;8.02;2.80;;;;;;;11.24;100.00;95778.84;1026464;28;20491;-72
2023/06/04 01:30:47;;;;;;;4.68;2.55;;;;;;;11.31;100.00;95790.63;1026550;28;20595;-72
2023/06/04 01:31:17;;;;;;;3.58;2.47;;;;;;;11.26;100.00;95776.72;1021957;28;20270;-72
2023/06/04 01:31:49;;;;;;;5.93;2.65;;;;;;;11.25;100.00;95783.03;1022348;29;20279;-72
2023/06/04 01:32:20;;;;;;;3.28;2.55;;;;;;;11.23;100.00;95782.50;1030549;28;20030;-72
2023/06/04 01:32:50;;;;;;;6.72;2.63;;;;;;;11.27;100.00;95783.56;1022549;29;20749;-72
2023/06/04 01:33:21;;;;;;;3.97;3.00;;;;;;;11.27;100.00;95786.19;1026282;28;20049;-72
2023/06/04 01:34:00;;;;;;;5.90;2.83;;;;;;;11.26;100.00;95793.25;1026479;28;20038;-72
2023/06/04 01:34:30;;;;;;;3.88;2.60;;;;;;;11.26;100.00;95790.63;1026111;28;20042;-72
2023/06/04 01:35:01;;;;;;;3.55;2.45;;;;;;;11.26;100.00;95784.59;1023420;28;20274;-72
2023/06/04 01:35:31;;;;;;;4.00;2.63;;;;;;;11.25;100.00;95790.91;1022590;29;20023;-72
2023/06/04 01:36:02;;;;;;;3.95;2.55;;;;;;;11.22;100.00;95786.19;1022765;28;20023;-73
2023/06/04 01:36:32;;;;;;;2.55;2.35;;;;;;;11.21;100.00;95779.38;1026584;28;20580;-72
2023/06/04 01:37:03;;;;;;;6.15;2.28;;;;;;;11.13;100.00;95772.00;1022395;28;20031;-72
2023/06/04 01:37:34;;;;;;;4.90;2.50;;;;;;;11.18;100.00;95787.78;1022491;29;20023;-72
2023/06/04 01:38:05;;;;;;;3.35;2.38;;;;;;;11.18;100.00;95787.78;1022303;28;20267;-73
2023/06/04 01:38:35;;;;;;;5.82;2.45;;;;;;;11.16;100.00;95793.28;1026253;28;20030;-72
2023/06/04 01:39:06;;;;;;;4.93;2.60;;;;;;;11.15;100.00;95794.34;1022466;29;20078;-72
2023/06/04 01:39:36;;;;;;;4.57;2.50;;;;;;;11.14;100.00;95789.38;1022681;29;20031;-73
2023/06/04 01:40:08;;;;;;;8.10;2.53;;;;;;;11.14;100.00;95782.25;1025163;28;20035;-72
2023/06/04 01:40:38;;;;;;;5.05;2.47;;;;;;;11.05;100.00;95778.59;1030789;28;20026;-73
2023/06/04 01:41:09;;;;;;;6.18;2.72;;;;;;;11.13;100.00;95785.13;1037968;28;20276;-72
2023/06/04 01:41:39;;;;;;;3.42;2.58;;;;;;;11.11;100.00;95787.25;1038228;28;20403;-72
2023/06/04 01:42:10;;;;;;;4.88;2.83;;;;;;;11.06;100.00;95783.56;1030542;28;20027;-73
2023/06/04 01:42:41;;;;;;;5.35;2.80;;;;;;;11.05;100.00;95779.38;1030246;28;20030;-73
2023/06/04 01:43:12;;;;;;;3.58;2.28;;;;;;;11.09;100.00;95785.66;1026362;28;20101;-72
2023/06/04 01:43:42;;;;;;;3.80;2.20;;;;;;;11.03;100.00;95786.75;1026688;28;20274;-73
2023/06/04 01:44:13;;;;;;;2.58;1.95;;;;;;;11.11;100.00;95789.88;1034719;28;20084;-72
2023/06/04 01:44:43;;;;;;;4.30;2.38;;;;;;;11.05;100.00;95784.63;1034403;28;20022;-72
2023/06/04 01:45:14;;;;;;;4.65;2.63;;;;;;;11.08;100.00;95786.72;1033484;28;20041;-73
2023/06/04 01:45:44;;;;;;;6.03;2.30;;;;;;;11.08;100.00;95791.97;1026525;28;20461;-73
2023/06/04 01:46:14;;;;;;;4.30;2.60;;;;;;;11.09;100.00;95798.00;1021873;28;20135;-72
2023/06/04 01:46:45;;;;;;;4.05;2.60;;;;;;;11.07;100.00;95794.88;1023056;28;20441;-73
2023/06/04 01:47:15;;;;;;;3.42;2.55;;;;;;;11.06;100.00;95793.28;1030860;28;20057;-72
2023/06/04 01:47:46;;;;;;;2.60;2.25;;;;;;;11.04;100.00;95790.94;1034316;28;20056;-73
2023/06/04 01:48:16;;;;;;;5.13;2.28;;;;;;;10.98;100.00;95781.47;1028772;28;20098;-73
2023/06/04 01:48:48;;;;;;;5.20;2.85;;;;;;;11.02;100.00;95787.78;1026366;28;20671;-72
2023/06/04 01:49:19;;;;;;;4.60;2.65;;;;;;;11.02;100.00;95790.41;1026714;28;20023;-72
2023/06/04 01:49:49;;;;;;;3.58;2.53;;;;;;;11.04;100.00;95790.94;1026653;28;20277;-73
2023/06/04 01:50:20;;;;;;;4.75;2.45;;;;;;;11.05;100.00;95791.72;1023851;28;20039;-73
2023/06/04 01:50:50;;;;;;;3.33;2.53;;;;;;;11.06;100.00;95793.28;1030227;28;20022;-72
2023/06/04 01:51:21;;;;;;;4.35;2.60;;;;;;;11.05;100.00;95792.50;1029699;28;20019;-73
2023/06/04 01:51:51;;;;;;;4.43;2.65;;;;;;;11.05;100.00;95792.50;1031164;28;20444;-72
2023/06/04 01:52:22;;;;;;;5.22;2.28;;;;;;;11.04;100.00;95790.16;1029388;28;20034;-72
2023/06/04 01:52:53;;;;;;;3.28;2.40;;;;;;;11.02;100.00;95795.66;1029543;28;20030;-73
2023/06/04 01:53:23;;;;;;;5.28;2.30;;;;;;;10.98;100.00;95789.34;1034264;28;20026;-72
2023/06/04 01:53:54;;;;;;;5.30;3.20;;;;;;;11.02;100.00;95794.88;1030488;28;20274;-73
2023/06/04 01:54:25;;;;;;;6.13;2.60;;;;;;;11.01;100.00;95795.94;1034226;28;20022;-72
2023/06/04 01:54:55;;;;;;;3.97;2.20;;;;;;;11.00;100.00;95795.16;1022300;28;20028;-72
2023/06/04 01:55:27;;;;;;;4.57;2.60;;;;;;;10.97;100.00;95790.41;1019647;29;20044;-72
2023/06/04 01:55:58;;;;;;;5.45;2.80;;;;;;;10.96;100.00;95786.19;1026547;28;20033;-74
2023/06/04 01:56:28;;;;;;;5.40;2.28;;;;;;;10.97;100.00;95795.66;1027116;28;20274;-73
2023/06/04 01:56:59;;;;;;;9.20;2.67;;;;;;;10.98;100.00;95796.44;1035852;28;20365;-72
2023/06/04 01:57:29;;;;;;;2.97;2.33;;;;;;;10.90;100.00;95789.09;1037888;28;20066;-72
2023/06/04 01:58:00;;;;;;;3.85;2.80;;;;;;;10.94;100.00;95798.81;1038483;28;20499;-73
2023/06/04 01:58:31;;;;;;;4.68;2.75;;;;;;;10.92;100.00;95802.75;1038507;28;20026;-73
2023/06/04 01:59:02;;;;;;;5.47;2.33;;;;;;;10.91;100.00;95801.97;1034348;28;20065;-72
2023/06/04 01:59:33;;;;;;;4.43;2.33;;;;;;;10.92;100.00;95798.28;1030261;28;20277;-73
2023/06/04 02:00:07;;;;;;;3.10;2.55;;;;;;;10.89;100.00;95795.41;1022448;29;20023;-72
2023/06/04 02:00:37;;;;;;;4.18;2.33;;;;;;;10.85;100.00;95787.25;1026566;28;20022;-72
2023/06/04 02:01:09;;;;;;;5.43;2.85;;;;;;;10.89;100.00;95798.81;1034514;28;20970;-72
2023/06/04 02:01:40;;;;;;;3.50;2.78;;;;;;;10.88;100.00;95799.88;1035164;28;20026;-72
2023/06/04 02:02:10;;;;;;;4.70;2.70;;;;;;;10.87;100.00;95798.28;1037628;28;20264;-73
2023/06/04 02:02:42;;;;;;;5.63;2.40;;;;;;;10.80;100.00;95787.28;1030057;28;20031;-72
2023/06/04 02:03:15;;;;;;;4.72;2.40;;;;;;;10.85;100.00;95797.75;1026759;28;20022;-73
2023/06/04 02:03:45;;;;;;;3.65;2.55;;;;;;;10.84;100.00;95799.59;1032227;28;20352;-72
2023/06/04 02:04:16;;;;;;;7.30;2.53;;;;;;;10.80;100.00;95789.91;1027175;28;20325;-72
2023/06/04 02:04:46;;;;;;;4.10;2.50;;;;;;;10.77;100.00;95793.03;1022737;28;20091;-71
2023/06/04 02:05:17;;;;;;;2.45;2.20;;;;;;;10.82;100.00;95806.16;1022026;28;20553;-73
2023/06/04 02:05:48;;;;;;;7.35;2.92;;;;;;;10.82;100.00;95799.06;1022365;29;20473;-73
2023/06/04 02:06:19;;;;;;;3.35;2.30;;;;;;;10.80;100.00;95800.41;1026682;28;20027;-72
2023/06/04 02:06:50;;;;;;;4.85;2.60;;;;;;;10.79;100.00;95793.56;1026820;28;20274;-72
2023/06/04 02:07:20;;;;;;;3.30;2.40;;;;;;;10.82;100.00;95793.81;1021361;28;20130;-73
2023/06/04 02:07:51;;;;;;;5.28;2.70;;;;;;;10.83;100.00;95799.84;1026322;28;20496;-73
2023/06/04 02:08:21;;;;;;;5.68;3.17;;;;;;;10.77;100.00;95800.91;1026483;28;20158;-72
2023/06/04 02:08:54;;;;;;;5.45;2.20;;;;;;;10.75;100.00;95797.75;1030164;28;20042;-72
2023/06/04 02:09:24;;;;;;;5.40;2.80;;;;;;;10.80;100.00;95800.41;1034453;28;20026;-73
2023/06/04 02:09:54;;;;;;;4.40;2.55;;;;;;;10.81;100.00;95796.72;1034250;28;20273;-73
2023/06/04 02:10:25;;;;;;;3.55;2.35;;;;;;;10.81;100.00;95799.34;1033963;28;20496;-72
2023/06/04 02:10:56;;;;;;;5.00;2.67;;;;;;;10.81;100.00;95804.59;1034293;28;20029;-73
2023/06/04 02:11:26;;;;;;;3.72;2.45;;;;;;;10.82;100.00;95803.53;1025673;28;20043;-72
2023/06/04 02:11:56;;;;;;;4.57;2.65;;;;;;;10.82;100.00;95803.53;1030359;28;20027;-73
2023/06/04 02:12:27;;;;;;;4.55;2.30;;;;;;;10.81;100.00;95796.72;1033067;28;20034;-73
2023/06/04 02:12:58;;;;;;;4.35;2.53;;;;;;;10.78;100.00;95800.66;1034278;28;20037;-72
2023/06/04 02:13:29;;;;;;;6.22;2.60;;;;;;;10.80;100.00;95801.19;1038614;28;20076;-74
2023/06/04 02:13:59;;;;;;;3.92;2.45;;;;;;;10.76;100.00;95796.69;1038230;28;20787;-73
2023/06/04 02:14:29;;;;;;;6.88;2.58;;;;;;;10.78;100.00;95803.28;1034148;28;20030;-72
2023/06/04 02:15:00;;;;;;;4.00;2.20;;;;;;;10.79;100.00;95802.22;1030293;28;20038;-72
2023/06/04 02:15:31;;;;;;;4.20;2.40;;;;;;;10.77;100.00;95801.69;1026130;28;20038;-73
2023/06/04 02:16:02;;;;;;;4.60;2.70;;;;;;;10.76;100.00;95799.31;1026643;28;20110;-72
2023/06/04 02:16:33;;;;;;;6.30;2.40;;;;;;;10.78;100.00;95797.25;1026164;28;20265;-72
2023/06/04 02:17:04;;;;;;;2.92;2.60;;;;;;;10.72;100.00;95793.03;1022625;28;20290;-74
2023/06/04 02:17:42;;;;;;;4.05;3.10;;;;;;;10.79;100.00;95804.06;1033444;28;20030;-72
2023/06/04 02:18:15;;;;;;;3.75;2.35;;;;;;;10.76;100.00;95801.94;1036933;28;20272;-73
2023/06/04 02:18:46;;;;;;;3.22;2.40;;;;;;;10.74;100.00;95801.44;1038677;28;20264;-72
2023/06/04 02:19:18;;;;;;;4.82;2.42;;;;;;;10.72;100.00;95799.06;1032874;28;20273;-73
2023/06/04 02:19:52;;;;;;;4.45;2.20;;;;;;;10.72;100.00;95809.56;1030061;28;20038;-72
2023/06/04 02:20:22;;;;;;;4.35;2.58;;;;;;;10.72;100.00;95798.28;1031178;28;20813;-72
2023/06/04 02:20:52;;;;;;;5.70;2.67;;;;;;;10.71;100.00;95807.22;1038476;28;20322;-72
2023/06/04 02:21:23;;;;;;;3.60;2.50;;;;;;;10.71;100.00;95802.75;1040694;28;20033;-72
2023/06/04 02:21:53;;;;;;;8.50;2.70;;;;;;;10.73;100.00;95805.09;1042848;28;20036;-72
2023/06/04 02:22:24;;;;;;;6.55;2.42;;;;;;;10.73;100.00;95805.09;1030172;28;20037;-70
2023/06/04 02:22:55;;;;;;;4.15;2.50;;;;;;;10.72;100.00;95798.28;1023913;28;20131;-72
2023/06/04 02:23:26;;;;;;;3.72;2.60;;;;;;;10.69;100.00;95799.59;1026919;28;20027;-72
2023/06/04 02:23:56;;;;;;;6.00;2.95;;;;;;;10.68;100.00;95799.84;1030796;28;20040;-72
2023/06/04 02:24:27;;;;;;;3.80;2.38;;;;;;;10.64;100.00;95790.94;1031117;28;20658;-72
2023/06/04 02:24:57;;;;;;;3.80;2.45;;;;;;;10.66;100.00;95804.56;1030461;28;20026;-73
2023/06/04 02:25:27;;;;;;;6.40;2.67;;;;;;;10.65;100.00;95803.00;1031159;28;20026;-72
2023/06/04 02:25:58;;;;;;;5.22;2.35;;;;;;;10.65;100.00;95797.75;1019139;29;20027;-72
2023/06/04 02:26:28;;;;;;;3.25;2.38;;;;;;;10.63;100.00;95800.66;1024633;28;20031;-73
2023/06/04 02:26:59;;;;;;;3.97;2.20;;;;;;;10.61;100.00;95803.53;1031243;28;20089;-72
2023/06/04 02:27:30;;;;;;;6.22;2.67;;;;;;;10.60;100.00;95796.69;1031134;28;20030;-72